createdAt,value
2022-08-31T00:01:52.371Z,18.04
2022-08-31T00:04:20.336Z,18.14
2022-08-31T00:06:51.405Z,18.14
2022-08-31T00:09:20.847Z,18.19
2022-08-31T00:11:47.499Z,18.01
2022-08-31T00:14:14.499Z,18.04
2022-08-31T00:16:42.850Z,17.99
2022-08-31T00:19:10.120Z,18.00
2022-08-31T00:21:39.091Z,18.00
2022-08-31T00:24:05.995Z,17.93
2022-08-31T00:26:32.656Z,17.91
2022-08-31T00:28:59.318Z,17.89
2022-08-31T00:31:25.947Z,17.86
2022-08-31T00:33:52.821Z,17.90
2022-08-31T00:36:24.643Z,17.80
2022-08-31T00:38:52.018Z,17.76
2022-08-31T00:41:21.679Z,17.79
2022-08-31T00:43:49.789Z,17.69
2022-08-31T00:46:22.824Z,17.69
2022-08-31T00:49:09.646Z,17.74
2022-08-31T00:51:39.928Z,17.63
2022-08-31T00:54:08.803Z,17.62
2022-08-31T00:56:36.100Z,17.67
2022-08-31T00:59:03.039Z,17.60
2022-08-31T01:01:30.914Z,17.55
2022-08-31T01:03:58.681Z,17.49
2022-08-31T01:06:25.673Z,17.46
2022-08-31T01:08:54.476Z,17.36
2022-08-31T01:11:21.493Z,17.35
2022-08-31T01:13:48.189Z,17.29
2022-08-31T01:16:20.076Z,17.07
2022-08-31T01:18:47.461Z,17.02
2022-08-31T01:21:26.312Z,17.16
2022-08-31T01:23:55.629Z,17.11
2022-08-31T01:26:24.763Z,17.11
2022-08-31T01:28:53.246Z,17.09
2022-08-31T01:31:27.364Z,16.88
2022-08-31T01:33:54.241Z,16.71
2022-08-31T01:36:22.241Z,16.70
2022-08-31T01:38:52.773Z,16.68
2022-08-31T01:41:20.166Z,16.74
2022-08-31T01:43:46.742Z,16.70
2022-08-31T01:46:14.249Z,16.70
2022-08-31T01:48:42.898Z,16.62
2022-08-31T01:51:12.364Z,16.59
2022-08-31T01:53:39.769Z,16.50
2022-08-31T01:56:17.919Z,16.40
2022-08-31T01:58:45.039Z,16.41
2022-08-31T02:01:33.634Z,16.48
2022-08-31T02:03:58.862Z,16.42
2022-08-31T02:06:25.645Z,16.49
2022-08-31T02:08:52.706Z,16.38
2022-08-31T02:11:19.378Z,16.34
2022-08-31T02:13:46.054Z,16.31
2022-08-31T02:16:12.771Z,16.32
2022-08-31T02:18:39.406Z,16.34
2022-08-31T02:21:06.189Z,16.33
2022-08-31T02:23:33.059Z,16.28
2022-08-31T02:26:00.088Z,16.22
2022-08-31T02:28:26.828Z,16.17
2022-08-31T02:30:53.390Z,16.19
2022-08-31T02:33:20.163Z,16.22
2022-08-31T02:35:46.785Z,16.16
2022-08-31T02:38:18.719Z,16.06
2022-08-31T02:40:45.808Z,16.09
2022-08-31T02:43:12.893Z,16.08
2022-08-31T02:45:51.138Z,16.05
2022-08-31T02:48:20.565Z,16.12
2022-08-31T02:50:49.115Z,16.05
2022-08-31T02:53:17.554Z,15.95
2022-08-31T02:55:44.521Z,15.80
2022-08-31T02:58:12.304Z,15.91
2022-08-31T03:00:40.551Z,15.86
2022-08-31T03:03:07.184Z,15.86
2022-08-31T03:05:33.866Z,15.87
2022-08-31T03:08:00.467Z,15.72
2022-08-31T03:10:27.102Z,15.76
2022-08-31T03:12:54.038Z,15.78
2022-08-31T03:15:22.622Z,15.76
2022-08-31T03:17:49.263Z,15.72
2022-08-31T03:20:16.714Z,15.80
2022-08-31T03:22:45.650Z,15.79
2022-08-31T03:25:12.787Z,15.72
2022-08-31T03:27:39.646Z,15.48
2022-08-31T03:30:09.506Z,15.77
2022-08-31T03:32:36.182Z,16.02
2022-08-31T03:35:04.271Z,16.28
2022-08-31T03:37:30.894Z,15.95
2022-08-31T03:39:57.860Z,15.97
2022-08-31T03:42:25.196Z,15.99
2022-08-31T03:44:52.427Z,15.98
2022-08-31T03:47:19.563Z,15.85
2022-08-31T03:49:46.195Z,15.83
2022-08-31T03:52:12.970Z,15.74
2022-08-31T03:54:39.751Z,15.75
2022-08-31T03:57:06.702Z,15.81
2022-08-31T03:59:33.338Z,16.15
2022-08-31T04:02:00.007Z,16.92
2022-08-31T04:04:26.798Z,16.98
2022-08-31T04:06:53.394Z,16.97
2022-08-31T04:09:20.135Z,17.45
2022-08-31T04:11:46.906Z,17.59
2022-08-31T04:14:15.430Z,18.07
2022-08-31T04:16:43.827Z,18.25
2022-08-31T04:19:11.623Z,18.02
2022-08-31T04:21:38.666Z,17.99
2022-08-31T04:24:07.726Z,17.84
2022-08-31T04:26:37.514Z,18.17
2022-08-31T04:29:07.646Z,18.33
2022-08-31T04:31:37.414Z,17.61
2022-08-31T04:34:05.203Z,17.58
2022-08-31T04:36:31.960Z,18.13
2022-08-31T04:39:00.448Z,18.17
2022-08-31T04:41:29.041Z,18.52
2022-08-31T04:43:58.143Z,18.54
2022-08-31T04:46:25.044Z,19.09
2022-08-31T04:48:51.678Z,18.72
2022-08-31T04:51:23.023Z,18.06
2022-08-31T04:53:50.418Z,18.59
2022-08-31T04:56:19.719Z,18.02
2022-08-31T04:58:54.852Z,18.00
2022-08-31T05:01:24.429Z,17.74
2022-08-31T05:03:53.297Z,18.05
2022-08-31T05:06:22.293Z,17.23
2022-08-31T05:08:53.641Z,17.33
2022-08-31T05:11:24.827Z,17.01
2022-08-31T05:13:52.994Z,17.23
2022-08-31T05:16:20.380Z,17.26
2022-08-31T05:18:48.504Z,17.35
2022-08-31T05:21:25.479Z,17.45
2022-08-31T05:23:52.185Z,17.01
2022-08-31T05:26:26.489Z,17.34
2022-08-31T05:28:53.775Z,17.35
2022-08-31T05:31:21.210Z,17.65
2022-08-31T05:33:47.856Z,17.46
2022-08-31T05:36:14.743Z,17.23
2022-08-31T05:38:41.507Z,17.33
2022-08-31T05:41:10.151Z,17.51
2022-08-31T05:43:38.215Z,17.64
2022-08-31T05:46:10.535Z,17.76
2022-08-31T05:48:37.958Z,17.70
2022-08-31T05:51:06.992Z,18.01
2022-08-31T05:53:34.616Z,17.78
2022-08-31T05:56:07.222Z,17.82
2022-08-31T05:58:34.186Z,17.70
2022-08-31T06:01:01.483Z,18.18
2022-08-31T06:03:29.249Z,18.29
2022-08-31T06:05:55.998Z,18.31
2022-08-31T06:08:27.587Z,18.56
2022-08-31T06:11:00.826Z,18.40
2022-08-31T06:13:27.458Z,18.75
2022-08-31T06:15:54.761Z,18.53
2022-08-31T06:18:21.555Z,18.68
2022-08-31T06:20:49.534Z,18.77
2022-08-31T06:23:19.831Z,19.10
2022-08-31T06:25:46.596Z,18.82
2022-08-31T06:28:14.981Z,18.80
2022-08-31T06:30:54.756Z,18.78
2022-08-31T06:33:23.052Z,18.88
2022-08-31T06:35:49.625Z,19.05
2022-08-31T06:38:16.201Z,18.91
2022-08-31T06:40:42.897Z,18.93
2022-08-31T06:43:09.576Z,19.01
2022-08-31T06:45:36.198Z,19.10
2022-08-31T06:48:03.505Z,19.21
2022-08-31T06:50:30.196Z,19.15
2022-08-31T06:52:57.344Z,19.13
2022-08-31T06:55:24.578Z,19.08
2022-08-31T06:57:51.219Z,19.06
2022-08-31T07:00:17.940Z,19.13
2022-08-31T07:02:44.621Z,19.14
2022-08-31T07:05:19.906Z,19.01
2022-08-31T07:07:51.481Z,19.16
2022-08-31T07:10:19.485Z,19.09
2022-08-31T07:12:46.172Z,19.20
2022-08-31T07:15:12.813Z,19.32
2022-08-31T07:17:39.528Z,19.30
2022-08-31T07:20:06.699Z,19.81
2022-08-31T07:22:33.335Z,19.80
2022-08-31T07:24:59.988Z,20.12
2022-08-31T07:27:26.673Z,20.12
2022-08-31T07:29:53.322Z,19.77
2022-08-31T07:32:19.985Z,19.98
2022-08-31T07:34:47.953Z,20.15
2022-08-31T07:37:34.752Z,20.33
2022-08-31T07:40:21.173Z,20.56
2022-08-31T07:42:48.006Z,20.27
2022-08-31T07:45:29.235Z,20.16
2022-08-31T07:48:00.574Z,20.34
2022-08-31T07:50:27.543Z,20.76
2022-08-31T07:52:55.735Z,20.20
2022-08-31T07:55:24.884Z,20.51
2022-08-31T07:57:53.905Z,20.59
2022-08-31T08:00:24.447Z,20.87
2022-08-31T08:02:54.048Z,20.73
2022-08-31T08:05:27.644Z,20.22
2022-08-31T08:07:57.481Z,20.44
2022-08-31T08:10:25.426Z,20.94
2022-08-31T08:12:57.263Z,21.45
2022-08-31T08:15:26.211Z,20.96
2022-08-31T08:17:52.959Z,21.19
2022-08-31T08:20:21.705Z,20.55
2022-08-31T08:23:01.329Z,20.90
2022-08-31T08:25:28.117Z,20.63
2022-08-31T08:27:55.528Z,20.39
2022-08-31T08:30:22.374Z,20.34
2022-08-31T08:32:49.075Z,20.51
2022-08-31T08:35:16.599Z,21.01
2022-08-31T08:37:58.349Z,20.54
2022-08-31T08:40:37.333Z,20.77
2022-08-31T08:43:06.126Z,20.59
2022-08-31T08:45:33.429Z,20.62
2022-08-31T08:48:00.391Z,20.56
2022-08-31T08:50:28.290Z,21.10
2022-08-31T08:52:57.515Z,21.05
2022-08-31T08:55:40.389Z,21.00
2022-08-31T08:58:10.428Z,20.68
2022-08-31T09:00:46.495Z,20.97
2022-08-31T09:03:21.608Z,21.27
2022-08-31T09:06:08.015Z,21.01
2022-08-31T09:09:08.103Z,21.40
2022-08-31T09:11:49.539Z,21.34
2022-08-31T09:14:39.393Z,20.82
2022-08-31T09:17:18.198Z,20.41
2022-08-31T09:20:01.610Z,20.76
2022-08-31T09:22:30.296Z,20.61
2022-08-31T09:24:59.621Z,21.00
2022-08-31T09:27:46.962Z,21.12
2022-08-31T09:30:34.678Z,21.28
2022-08-31T09:33:01.368Z,21.55
2022-08-31T09:35:40.431Z,21.97
2022-08-31T09:38:12.576Z,21.80
2022-08-31T09:40:42.513Z,22.09
2022-08-31T09:43:22.804Z,21.77
2022-08-31T09:45:58.292Z,21.88
2022-08-31T09:48:48.440Z,22.20
2022-08-31T09:51:22.856Z,22.57
2022-08-31T09:54:09.937Z,22.44
2022-08-31T09:56:56.799Z,21.67
2022-08-31T09:59:40.258Z,21.52
2022-08-31T10:02:31.826Z,21.57
2022-08-31T10:05:06.399Z,21.48
2022-08-31T10:07:43.316Z,22.23
2022-08-31T10:10:28.077Z,22.77
2022-08-31T10:13:05.306Z,22.77
2022-08-31T10:15:32.909Z,23.33
2022-08-31T10:18:13.843Z,23.31
2022-08-31T10:20:50.795Z,23.08
2022-08-31T10:23:34.971Z,22.81
2022-08-31T10:26:11.482Z,22.70
2022-08-31T10:28:48.817Z,22.57
2022-08-31T10:31:21.354Z,22.53
2022-08-31T10:34:14.684Z,22.45
2022-08-31T10:36:41.963Z,22.15
2022-08-31T10:39:48.026Z,21.92
2022-08-31T10:42:26.125Z,22.10
2022-08-31T10:45:18.570Z,22.52
2022-08-31T10:47:49.215Z,22.79
2022-08-31T10:50:26.947Z,22.78
2022-08-31T10:53:05.973Z,23.69
2022-08-31T10:55:39.415Z,22.94
2022-08-31T10:58:23.991Z,22.54
2022-08-31T11:01:00.440Z,22.50
2022-08-31T11:03:49.866Z,22.12
2022-08-31T11:06:43.917Z,21.95
2022-08-31T11:09:23.528Z,22.09
2022-08-31T11:11:58.129Z,22.22
2022-08-31T11:14:58.576Z,22.58
2022-08-31T11:17:40.113Z,22.24
2022-08-31T11:20:18.174Z,22.56
2022-08-31T11:22:50.944Z,22.37
2022-08-31T11:25:50.634Z,22.48
2022-08-31T11:28:29.059Z,22.36
2022-08-31T11:30:56.330Z,22.75
2022-08-31T11:33:28.386Z,22.95
2022-08-31T11:36:06.677Z,23.04
2022-08-31T11:38:42.386Z,22.72
2022-08-31T11:41:11.261Z,22.71
2022-08-31T11:43:44.469Z,22.76
2022-08-31T11:46:26.973Z,22.90
2022-08-31T11:48:54.046Z,22.96
2022-08-31T11:51:44.917Z,22.95
2022-08-31T11:54:22.806Z,23.02
2022-08-31T11:56:49.453Z,22.87
2022-08-31T11:59:29.041Z,22.70
2022-08-31T12:01:56.754Z,22.61
2022-08-31T12:04:46.528Z,22.35
2022-08-31T12:07:28.511Z,22.15
2022-08-31T12:10:13.316Z,22.17
2022-08-31T12:13:07.761Z,22.18
2022-08-31T12:15:34.327Z,22.33
2022-08-31T12:18:18.702Z,22.54
2022-08-31T12:21:26.345Z,22.75
2022-08-31T12:24:37.504Z,23.27
2022-08-31T12:27:16.990Z,23.57
2022-08-31T12:29:43.934Z,23.22
2022-08-31T12:32:22.956Z,23.07
2022-08-31T12:34:55.547Z,22.71
2022-08-31T12:37:26.422Z,22.71
2022-08-31T12:40:13.396Z,22.80
2022-08-31T12:43:03.011Z,22.85
2022-08-31T12:45:44.662Z,22.99
2022-08-31T12:48:29.614Z,23.11
2022-08-31T12:50:57.824Z,23.22
2022-08-31T12:53:37.113Z,22.91
2022-08-31T12:56:26.011Z,22.91
2022-08-31T12:59:01.713Z,22.72
2022-08-31T13:01:28.636Z,22.63
2022-08-31T13:04:00.966Z,22.75
2022-08-31T13:06:33.642Z,22.36
2022-08-31T13:09:01.378Z,22.77
2022-08-31T13:11:41.511Z,22.80
2022-08-31T13:14:08.538Z,22.66
2022-08-31T13:16:35.377Z,22.67
2022-08-31T13:19:05.441Z,22.60
2022-08-31T13:21:33.269Z,22.27
2022-08-31T13:24:08.225Z,22.29
2022-08-31T13:26:36.547Z,22.37
2022-08-31T13:29:07.646Z,22.44
2022-08-31T13:31:49.049Z,22.55
2022-08-31T13:34:15.842Z,22.51
2022-08-31T13:36:47.813Z,22.50
2022-08-31T13:39:29.918Z,22.63
2022-08-31T13:42:09.623Z,22.80
2022-08-31T13:44:40.651Z,22.60
2022-08-31T13:47:21.127Z,22.34
2022-08-31T13:49:49.130Z,21.95
2022-08-31T13:52:23.467Z,21.87
2022-08-31T13:55:06.521Z,22.08
2022-08-31T13:57:38.639Z,22.23
2022-08-31T14:00:42.138Z,22.04
2022-08-31T14:03:32.176Z,21.98
2022-08-31T14:06:24.081Z,21.99
2022-08-31T14:08:57.930Z,22.11
2022-08-31T14:11:29.053Z,22.10
2022-08-31T14:14:05.216Z,22.16
2022-08-31T14:16:36.338Z,22.10
2022-08-31T14:19:03.380Z,22.22
2022-08-31T14:21:35.166Z,22.15
2022-08-31T14:24:07.805Z,22.18
2022-08-31T14:26:41.764Z,22.01
2022-08-31T14:29:16.382Z,21.93
2022-08-31T14:31:49.243Z,22.16
2022-08-31T14:34:23.276Z,22.01
2022-08-31T14:37:04.144Z,21.89
2022-08-31T14:39:37.266Z,21.79
2022-08-31T14:42:11.531Z,21.92
2022-08-31T14:44:41.494Z,21.71
2022-08-31T14:47:09.724Z,21.76
2022-08-31T14:49:37.009Z,21.78
2022-08-31T14:52:06.320Z,21.86
2022-08-31T14:54:37.889Z,21.94
2022-08-31T14:57:12.761Z,21.93
2022-08-31T14:59:40.922Z,22.00
2022-08-31T15:02:12.866Z,21.91
2022-08-31T15:04:44.652Z,21.98
2022-08-31T15:07:13.582Z,21.89
2022-08-31T15:09:42.361Z,21.93
2022-08-31T15:12:14.605Z,21.83
2022-08-31T15:14:43.188Z,22.07
2022-08-31T15:17:16.655Z,22.10
2022-08-31T15:19:46.165Z,22.04
2022-08-31T15:22:12.893Z,22.04
2022-08-31T15:24:44.999Z,22.11
2022-08-31T15:27:15.160Z,22.08
2022-08-31T15:29:47.369Z,22.06
2022-08-31T15:32:17.622Z,21.92
2022-08-31T15:34:58.034Z,21.70
2022-08-31T15:37:31.588Z,21.52
2022-08-31T15:40:00.391Z,21.58
2022-08-31T15:42:27.138Z,21.50
2022-08-31T15:44:57.025Z,21.79
2022-08-31T15:47:51.502Z,22.45
2022-08-31T15:50:20.271Z,22.60
2022-08-31T15:52:51.671Z,22.67
2022-08-31T15:55:23.532Z,22.60
2022-08-31T15:57:54.097Z,22.79
2022-08-31T16:00:23.595Z,22.50
2022-08-31T16:02:57.196Z,22.34
2022-08-31T16:05:35.752Z,22.42
2022-08-31T16:08:03.196Z,22.44
2022-08-31T16:10:30.834Z,22.29
2022-08-31T16:12:57.434Z,22.13
2022-08-31T16:15:25.085Z,21.79
2022-08-31T16:17:54.070Z,21.58
2022-08-31T16:20:20.644Z,21.50
2022-08-31T16:22:48.307Z,21.47
2022-08-31T16:25:16.299Z,21.32
2022-08-31T16:27:43.418Z,21.12
2022-08-31T16:30:11.947Z,20.71
2022-08-31T16:32:38.726Z,20.47
2022-08-31T16:35:06.341Z,20.28
2022-08-31T16:37:33.421Z,20.23
2022-08-31T16:40:00.124Z,20.17
2022-08-31T16:42:26.896Z,20.02
2022-08-31T16:44:53.520Z,19.93
2022-08-31T16:47:20.263Z,19.91
2022-08-31T16:49:47.477Z,19.85
2022-08-31T16:52:24.242Z,19.82
2022-08-31T16:54:52.103Z,19.76
2022-08-31T16:57:23.515Z,19.65
2022-08-31T16:59:51.365Z,19.57
2022-08-31T17:02:19.673Z,19.52
2022-08-31T17:04:54.531Z,19.47
2022-08-31T17:07:21.802Z,19.37
2022-08-31T17:09:48.662Z,19.29
2022-08-31T17:12:17.794Z,19.41
2022-08-31T17:14:48.231Z,19.35
2022-08-31T17:17:17.582Z,19.43
2022-08-31T17:19:45.205Z,19.37
2022-08-31T17:22:21.499Z,19.21
2022-08-31T17:24:50.490Z,19.18
2022-08-31T17:27:19.476Z,19.21
2022-08-31T17:29:48.392Z,19.07
2022-08-31T17:32:16.928Z,19.17
2022-08-31T17:34:43.555Z,19.15
2022-08-31T17:37:15.388Z,18.97
2022-08-31T17:39:43.858Z,19.05
2022-08-31T17:42:11.087Z,18.95
2022-08-31T17:44:37.970Z,18.98
2022-08-31T17:47:05.375Z,18.99
2022-08-31T17:49:38.000Z,18.93
2022-08-31T17:52:08.560Z,18.92
2022-08-31T17:54:39.441Z,18.86
2022-08-31T17:57:10.319Z,18.72
2022-08-31T17:59:39.694Z,18.79
2022-08-31T18:02:11.645Z,18.69
2022-08-31T18:04:39.303Z,18.69
2022-08-31T18:07:06.738Z,18.54
2022-08-31T18:09:35.767Z,18.60
2022-08-31T18:12:02.926Z,18.60
2022-08-31T18:14:31.403Z,18.52
2022-08-31T18:17:00.493Z,18.55
2022-08-31T18:19:28.285Z,18.46
2022-08-31T18:21:58.392Z,18.54
2022-08-31T18:24:25.464Z,18.41
2022-08-31T18:26:52.562Z,18.19
2022-08-31T18:29:24.374Z,18.38
2022-08-31T18:31:53.895Z,18.38
2022-08-31T18:34:23.724Z,18.34
2022-08-31T18:36:53.666Z,18.30
2022-08-31T18:39:47.572Z,18.27
2022-08-31T18:42:27.658Z,18.22
2022-08-31T18:45:12.890Z,18.18
2022-08-31T18:47:39.689Z,18.08
2022-08-31T18:50:08.198Z,18.09
2022-08-31T18:52:39.214Z,17.95
2022-08-31T18:55:09.224Z,17.80
2022-08-31T18:57:46.349Z,17.77
2022-08-31T19:00:17.804Z,17.72
2022-08-31T19:02:45.092Z,17.66
2022-08-31T19:05:13.603Z,17.62
2022-08-31T19:07:41.341Z,17.59
2022-08-31T19:10:13.238Z,17.59
2022-08-31T19:12:42.482Z,17.36
2022-08-31T19:15:12.778Z,17.38
2022-08-31T19:17:40.179Z,17.28
2022-08-31T19:20:10.315Z,17.43
2022-08-31T19:22:37.574Z,17.29
2022-08-31T19:25:04.810Z,17.28
2022-08-31T19:27:31.550Z,17.21
2022-08-31T19:29:59.009Z,17.05
2022-08-31T19:32:28.631Z,17.04
2022-08-31T19:34:55.308Z,17.02
2022-08-31T19:37:21.989Z,17.00
2022-08-31T19:39:49.679Z,17.03
2022-08-31T19:42:16.460Z,16.98
2022-08-31T19:44:55.954Z,17.07
2022-08-31T19:47:34.892Z,17.02
2022-08-31T19:50:02.079Z,17.09
2022-08-31T19:52:28.673Z,17.00
2022-08-31T19:54:55.318Z,17.02
2022-08-31T19:57:22.630Z,16.97
2022-08-31T19:59:49.861Z,16.95
2022-08-31T20:02:17.270Z,16.96
2022-08-31T20:04:47.093Z,16.77
2022-08-31T20:07:14.389Z,16.88
2022-08-31T20:09:41.066Z,16.71
2022-08-31T20:12:08.522Z,16.53
2022-08-31T20:14:35.931Z,16.70
2022-08-31T20:17:02.889Z,16.80
2022-08-31T20:19:36.137Z,16.81
2022-08-31T20:22:09.450Z,16.81
2022-08-31T20:24:39.348Z,16.91
2022-08-31T20:27:13.786Z,16.89
2022-08-31T20:29:40.739Z,16.91
2022-08-31T20:32:08.176Z,16.96
2022-08-31T20:34:35.011Z,17.04
2022-08-31T20:37:02.917Z,17.02
2022-08-31T20:39:30.929Z,17.00
2022-08-31T20:41:59.070Z,16.91
2022-08-31T20:44:27.594Z,16.90
2022-08-31T20:47:22.229Z,16.86
2022-08-31T20:49:57.474Z,16.74
2022-08-31T20:52:27.111Z,16.79
2022-08-31T20:55:02.008Z,16.74
2022-08-31T20:57:32.439Z,16.72
2022-08-31T21:00:02.451Z,16.70
2022-08-31T21:02:31.773Z,16.68
2022-08-31T21:05:10.404Z,16.65
2022-08-31T21:07:45.670Z,16.62
2022-08-31T21:10:12.310Z,16.56
2022-08-31T21:12:39.104Z,16.53
2022-08-31T21:15:10.027Z,16.52
2022-08-31T21:17:36.711Z,16.51
2022-08-31T21:20:05.408Z,16.40
2022-08-31T21:22:35.035Z,16.45
2022-08-31T21:25:03.590Z,16.36
2022-08-31T21:27:30.399Z,16.25
2022-08-31T21:29:57.142Z,16.19
2022-08-31T21:32:23.729Z,16.30
2022-08-31T21:34:50.361Z,16.26
2022-08-31T21:37:17.126Z,16.15
2022-08-31T21:39:43.830Z,16.14
2022-08-31T21:42:10.501Z,16.10
2022-08-31T21:44:37.511Z,16.25
2022-08-31T21:47:05.565Z,16.00
2022-08-31T21:49:34.268Z,16.05
2022-08-31T21:52:00.922Z,15.98
2022-08-31T21:54:28.784Z,15.92
2022-08-31T21:57:00.887Z,15.98
2022-08-31T21:59:30.052Z,15.98
2022-08-31T22:02:00.393Z,16.00
2022-08-31T22:04:31.925Z,15.91
2022-08-31T22:06:59.562Z,15.92
2022-08-31T22:09:28.272Z,15.85
2022-08-31T22:11:57.220Z,15.85
2022-08-31T22:14:31.929Z,15.77
2022-08-31T22:17:02.885Z,15.73
2022-08-31T22:19:30.033Z,15.78
2022-08-31T22:22:00.840Z,15.71
2022-08-31T22:24:32.054Z,15.61
2022-08-31T22:27:01.672Z,15.56
2022-08-31T22:29:31.536Z,15.53
2022-08-31T22:32:01.327Z,15.47
2022-08-31T22:34:28.321Z,15.54
2022-08-31T22:36:56.370Z,15.52
2022-08-31T22:39:25.959Z,15.43
2022-08-31T22:41:53.157Z,15.36
2022-08-31T22:44:22.071Z,15.44
2022-08-31T22:46:48.815Z,15.42
2022-08-31T22:49:15.599Z,15.35
2022-08-31T22:51:43.317Z,15.41
2022-08-31T22:54:10.819Z,15.35
2022-08-31T22:56:38.976Z,15.37
2022-08-31T22:59:12.998Z,15.34
2022-08-31T23:01:43.177Z,15.36
2022-08-31T23:04:12.465Z,15.19
2022-08-31T23:06:39.423Z,15.13
2022-08-31T23:09:08.955Z,15.22
2022-08-31T23:11:36.384Z,15.30
2022-08-31T23:14:07.403Z,15.29
2022-08-31T23:16:37.616Z,15.38
2022-08-31T23:19:12.202Z,15.30
2022-08-31T23:21:46.686Z,15.36
2022-08-31T23:24:40.699Z,15.24
2022-08-31T23:27:10.271Z,15.29
2022-08-31T23:29:45.724Z,15.27
2022-08-31T23:32:13.236Z,15.25
2022-08-31T23:34:41.697Z,15.37
2022-08-31T23:37:10.475Z,15.28
2022-08-31T23:39:40.223Z,15.19
2022-08-31T23:42:10.326Z,15.14
2022-08-31T23:44:42.313Z,15.32
2022-08-31T23:47:18.315Z,15.37
2022-08-31T23:49:45.980Z,15.40
2022-08-31T23:52:18.687Z,15.47
2022-08-31T23:54:46.394Z,15.43
2022-08-31T23:57:31.538Z,15.47
